createdAt,value
2022-11-10T00:00:45.092Z,100650.72
2022-11-10T00:02:10.559Z,100661.09
2022-11-10T00:03:32.584Z,100658.59
2022-11-10T00:04:53.548Z,100658.31
2022-11-10T00:07:51.862Z,100654.63
2022-11-10T00:09:15.858Z,100667.25
2022-11-10T00:11:03.539Z,100670.91
2022-11-10T00:12:24.120Z,100673.72
2022-11-10T00:14:08.128Z,100674.28
2022-11-10T00:15:50.753Z,100667.81
2022-11-10T00:17:14.003Z,100675.41
2022-11-10T00:18:37.758Z,100672.03
2022-11-10T00:21:40.824Z,100670.34
2022-11-10T00:23:04.895Z,100681.22
2022-11-10T00:24:27.270Z,100685.41
2022-11-10T00:25:56.091Z,100679.81
2022-11-10T00:27:17.942Z,100690.44
2022-11-10T00:28:40.614Z,100684.84
2022-11-10T00:30:02.866Z,100689.91
2022-11-10T00:31:26.703Z,100681.22
2022-11-10T00:32:50.236Z,100687.94
2022-11-10T00:34:17.903Z,100685.13
2022-11-10T00:35:49.170Z,100691.56
2022-11-10T00:37:11.289Z,100694.38
2022-11-10T00:38:45.349Z,100701.09
2022-11-10T00:40:07.584Z,100697.47
2022-11-10T00:41:30.064Z,100712.88
2022-11-10T00:42:54.506Z,100699.97
2022-11-10T00:45:53.538Z,100696.59
2022-11-10T00:47:14.836Z,100707.25
2022-11-10T00:48:35.570Z,100703.88
2022-11-10T00:49:56.951Z,100717.88
2022-11-10T00:51:26.745Z,100710.88
2022-11-10T00:52:50.072Z,100714.81
2022-11-10T00:54:12.495Z,100716.75
2022-11-10T00:55:42.765Z,100727.13
2022-11-10T00:57:14.383Z,100720.69
2022-11-10T00:58:50.488Z,100734.97
2022-11-10T01:00:16.232Z,100735.78
2022-11-10T01:01:41.234Z,100741.94
2022-11-10T01:03:03.263Z,100747.53
2022-11-10T01:04:29.414Z,100761.84
2022-11-10T01:05:51.231Z,100748.94
2022-11-10T01:07:13.207Z,100752.56
2022-11-10T01:08:38.860Z,100760.69
2022-11-10T01:10:02.445Z,100760.41
2022-11-10T01:11:29.537Z,100759.25
2022-11-10T01:12:53.268Z,100763.13
2022-11-10T01:14:16.741Z,100761.97
2022-11-10T01:15:41.785Z,100753.00
2022-11-10T01:17:04.099Z,100761.91
2022-11-10T01:18:30.939Z,100763.31
2022-11-10T01:19:55.116Z,100771.44
2022-11-10T01:21:17.041Z,100772.53
2022-11-10T01:22:41.108Z,100769.19
2022-11-10T01:27:14.345Z,100777.91
2022-11-10T01:28:42.055Z,100791.66
2022-11-10T01:30:11.078Z,100789.69
2022-11-10T01:31:32.677Z,100783.25
2022-11-10T01:32:56.269Z,100788.56
2022-11-10T01:34:19.845Z,100782.13
2022-11-10T01:35:47.875Z,100784.31
2022-11-10T01:38:49.957Z,100785.41
2022-11-10T01:40:17.721Z,100791.84
2022-11-10T01:42:07.709Z,100794.09
2022-11-10T01:43:28.694Z,100794.34
2022-11-10T01:45:12.116Z,100788.69
2022-11-10T01:46:35.177Z,100792.63
2022-11-10T01:47:59.566Z,100801.56
2022-11-10T01:51:09.275Z,100785.03
2022-11-10T01:52:44.926Z,100793.66
2022-11-10T01:54:16.148Z,100794.44
2022-11-10T01:55:41.390Z,100800.50
2022-11-10T01:57:08.289Z,100802.78
2022-11-10T01:58:32.176Z,100802.50
2022-11-10T02:00:06.504Z,100797.25
2022-11-10T02:01:29.718Z,100805.38
2022-11-10T02:03:08.422Z,100803.72
2022-11-10T02:04:35.681Z,100794.81
2022-11-10T02:06:00.916Z,100800.72
2022-11-10T02:09:03.396Z,100800.16
2022-11-10T02:10:30.119Z,100811.09
2022-11-10T02:11:54.617Z,100800.44
2022-11-10T02:13:16.157Z,100802.97
2022-11-10T02:14:44.221Z,100809.41
2022-11-10T02:16:12.158Z,100802.69
2022-11-10T02:17:38.146Z,100804.34
2022-11-10T02:19:12.008Z,100811.34
2022-11-10T02:20:33.717Z,100819.47
2022-11-10T02:21:58.888Z,100813.88
2022-11-10T02:26:50.156Z,100820.00
2022-11-10T02:28:22.146Z,100825.00
2022-11-10T02:30:02.565Z,100816.09
2022-11-10T02:31:23.453Z,100823.94
2022-11-10T02:32:46.391Z,100818.91
2022-11-10T02:34:06.947Z,100820.84
2022-11-10T02:35:32.492Z,100829.81
2022-11-10T02:36:56.341Z,100828.16
2022-11-10T02:38:19.179Z,100829.25
2022-11-10T02:39:40.236Z,100827.31
2022-11-10T02:41:08.369Z,100826.47
2022-11-10T02:44:06.117Z,100830.38
2022-11-10T02:45:33.302Z,100833.41
2022-11-10T02:47:00.498Z,100819.69
2022-11-10T02:48:31.710Z,100825.00
2022-11-10T02:49:54.178Z,100824.44
2022-11-10T02:51:15.906Z,100824.44
2022-11-10T02:52:41.214Z,100822.75
2022-11-10T02:54:06.396Z,100819.13
2022-11-10T02:55:30.794Z,100817.69
2022-11-10T02:56:54.774Z,100821.63
2022-11-10T02:58:15.667Z,100835.88
2022-11-10T02:59:42.618Z,100824.94
2022-11-10T03:01:21.947Z,100829.97
2022-11-10T03:04:21.119Z,100835.94
2022-11-10T03:07:33.599Z,100839.28
2022-11-10T03:10:51.145Z,100842.09
2022-11-10T03:12:12.202Z,100838.16
2022-11-10T03:13:59.052Z,100850.22
2022-11-10T03:15:27.157Z,100847.69
2022-11-10T03:16:49.918Z,100849.31
2022-11-10T03:18:12.276Z,100843.72
2022-11-10T03:19:34.148Z,100857.44
2022-11-10T03:20:56.063Z,100862.19
2022-11-10T03:22:18.978Z,100861.53
2022-11-10T03:27:12.546Z,100857.66
2022-11-10T03:35:29.279Z,100877.63
2022-11-10T03:38:32.306Z,100883.53
2022-11-10T03:40:03.894Z,100886.94
2022-11-10T03:43:02.967Z,100903.44
2022-11-10T03:48:01.814Z,100907.09
2022-11-10T03:51:51.637Z,100896.16
2022-11-10T03:53:22.985Z,100908.06
2022-11-10T03:56:30.200Z,100914.69
2022-11-10T04:05:14.964Z,100925.63
2022-11-10T04:07:03.216Z,100928.94
2022-11-10T04:08:42.426Z,100944.84
2022-11-10T04:12:03.626Z,100936.28
2022-11-10T04:13:42.579Z,100938.28
2022-11-10T04:20:11.149Z,100944.56
2022-11-10T04:21:37.882Z,100945.13
2022-11-10T04:23:16.495Z,100947.94
2022-11-10T04:24:46.012Z,100951.84
2022-11-10T04:26:31.665Z,100956.84
2022-11-10T04:27:52.805Z,100959.63
2022-11-10T04:29:15.271Z,100961.25
2022-11-10T04:30:36.534Z,100960.16
2022-11-10T04:32:04.316Z,100958.44
2022-11-10T04:33:29.246Z,100961.25
2022-11-10T04:34:54.382Z,100969.63
2022-11-10T04:36:17.137Z,100968.78
2022-11-10T04:37:42.165Z,100965.66
2022-11-10T04:42:12.458Z,100975.59
2022-11-10T04:43:34.060Z,100984.59
2022-11-10T04:44:54.962Z,100981.53
2022-11-10T04:46:26.850Z,100977.91
2022-11-10T04:47:47.922Z,100982.91
2022-11-10T04:49:08.408Z,100975.59
2022-11-10T04:50:30.673Z,100976.13
2022-11-10T04:51:51.721Z,100972.81
2022-11-10T04:53:20.812Z,100970.00
2022-11-10T04:54:44.183Z,100971.72
2022-11-10T04:57:38.963Z,100971.72
2022-11-10T04:59:02.721Z,100973.06
2022-11-10T05:00:26.631Z,100973.31
2022-11-10T05:01:50.981Z,100977.22
2022-11-10T05:06:24.636Z,100981.91
2022-11-10T05:09:26.663Z,100991.25
2022-11-10T05:10:48.756Z,100990.47
2022-11-10T05:13:50.187Z,100996.16
2022-11-10T05:15:11.141Z,100992.25
2022-11-10T05:16:31.552Z,101001.22
2022-11-10T05:17:52.926Z,100994.78
2022-11-10T05:19:14.888Z,100993.94
2022-11-10T05:20:37.075Z,100982.19
2022-11-10T05:22:01.583Z,100992.75
2022-11-10T05:23:41.700Z,101002.47
2022-11-10T05:25:02.978Z,101012.50
2022-11-10T05:26:26.461Z,101011.06
2022-11-10T05:27:47.056Z,101018.34
2022-11-10T05:29:13.806Z,101018.41
2022-11-10T05:33:53.057Z,101023.56
2022-11-10T05:35:14.783Z,101025.28
2022-11-10T05:36:38.438Z,101045.09
2022-11-10T05:38:01.646Z,101051.53
2022-11-10T05:39:25.100Z,101048.81
2022-11-10T05:40:49.752Z,101053.03
2022-11-10T05:43:46.363Z,101064.03
2022-11-10T05:45:10.889Z,101069.13
2022-11-10T05:48:18.524Z,101076.75
2022-11-10T05:49:43.951Z,101070.91
2022-11-10T05:51:07.278Z,101071.47
2022-11-10T05:52:31.761Z,101065.88
2022-11-10T05:53:55.876Z,101071.22
2022-11-10T06:00:24.472Z,101086.06
2022-11-10T06:03:27.961Z,101073.16
2022-11-10T06:06:29.955Z,101084.34
2022-11-10T06:07:52.950Z,101081.81
2022-11-10T06:09:13.550Z,101087.41
2022-11-10T06:10:35.915Z,101086.22
2022-11-10T06:12:14.527Z,101078.94
2022-11-10T06:13:37.060Z,101079.78
2022-11-10T06:15:02.390Z,101100.44
2022-11-10T06:19:45.799Z,101128.94
2022-11-10T06:21:08.539Z,101116.06
2022-11-10T06:22:30.409Z,101124.97
2022-11-10T06:25:47.020Z,101128.28
2022-11-10T06:27:09.901Z,101132.41
2022-11-10T06:28:30.421Z,101143.84
2022-11-10T06:29:50.504Z,101147.72
2022-11-10T06:31:13.682Z,101151.63
2022-11-10T11:15:59.234Z,101400.63
2022-11-10T11:35:19.139Z,101393.41
2022-11-10T11:36:48.900Z,101402.16
2022-11-10T13:08:34.169Z,101440.94
2022-11-10T14:35:21.602Z,101477.03
2022-11-10T15:13:27.607Z,101520.31
2022-11-10T15:14:48.253Z,101520.94
2022-11-10T15:53:45.706Z,101536.97
2022-11-10T15:58:35.167Z,101539.31
2022-11-10T16:34:08.900Z,101565.34
2022-11-10T16:35:29.318Z,101571.56
2022-11-10T16:36:51.115Z,101571.28
2022-11-10T16:38:21.681Z,101572.69
2022-11-10T16:39:42.064Z,101582.53
2022-11-10T16:41:02.975Z,101581.13
2022-11-10T16:42:27.421Z,101579.13
2022-11-10T16:43:49.347Z,101566.97
2022-11-10T16:45:22.660Z,101575.16
2022-11-10T16:46:42.978Z,101583.03
2022-11-10T16:48:03.177Z,101573.38
2022-11-10T16:49:33.149Z,101575.66
2022-11-10T16:50:56.301Z,101583.50
2022-11-10T16:52:17.516Z,101582.34
2022-11-10T16:53:38.640Z,101581.78
2022-11-10T16:54:59.489Z,101586.53
2022-11-10T16:56:21.644Z,101587.66
2022-11-10T16:57:42.016Z,101585.13
2022-11-10T16:59:03.389Z,101596.66
2022-11-10T17:00:24.314Z,101605.09
2022-11-10T17:01:44.827Z,101604.81
2022-11-10T17:03:08.195Z,101607.88
2022-11-10T17:04:29.653Z,101612.66
2022-11-10T17:05:50.468Z,101610.97
2022-11-10T17:07:13.696Z,101601.94
2022-11-10T17:08:34.924Z,101621.66
2022-11-10T17:09:58.488Z,101609.53
2022-11-10T17:11:19.812Z,101601.31
2022-11-10T17:12:40.948Z,101614.56
2022-11-10T17:14:01.991Z,101606.66
2022-11-10T17:15:23.338Z,101612.56
2022-11-10T17:16:48.208Z,101608.06
2022-11-10T17:18:10.501Z,101618.41
2022-11-10T17:19:30.971Z,101610.25
2022-11-10T17:20:51.767Z,101613.34
2022-11-10T17:22:13.286Z,101613.03
2022-11-10T17:23:33.947Z,101615.22
2022-11-10T17:24:55.408Z,101623.63
2022-11-10T17:26:16.348Z,101627.25
2022-11-10T17:27:38.063Z,101624.97
2022-11-10T17:28:58.813Z,101620.47
2022-11-10T17:30:21.432Z,101625.25
2022-11-10T17:31:42.421Z,101622.44
2022-11-10T17:33:05.397Z,101628.59
2022-11-10T17:34:31.591Z,101632.53
2022-11-10T17:35:52.613Z,101634.75
2022-11-10T17:37:14.952Z,101636.34
2022-11-10T17:38:57.125Z,101631.84
2022-11-10T17:40:18.942Z,101639.97
2022-11-10T17:41:39.784Z,101634.00
2022-11-10T17:43:00.344Z,101636.25
2022-11-10T17:44:21.160Z,101635.69
2022-11-10T17:45:42.020Z,101635.84
2022-11-10T17:47:02.613Z,101635.00
2022-11-10T17:48:25.512Z,101630.75
2022-11-10T17:49:46.167Z,101646.19
2022-11-10T17:51:09.252Z,101638.53
2022-11-10T17:52:31.496Z,101638.19
2022-11-10T17:53:54.457Z,101636.47
2022-11-10T17:55:16.700Z,101645.69
2022-11-10T17:56:37.595Z,101645.41
2022-11-10T17:57:58.693Z,101640.03
2022-11-10T17:59:18.970Z,101636.88
2022-11-10T18:00:39.704Z,101628.44
2022-11-10T18:02:01.789Z,101623.94
2022-11-10T18:03:22.611Z,101639.13
2022-11-10T18:04:45.938Z,101630.69
2022-11-10T18:06:06.730Z,101631.22
2022-11-10T18:07:27.112Z,101628.09
2022-11-10T18:08:47.871Z,101629.97
2022-11-10T18:10:13.113Z,101627.69
2022-11-10T18:11:36.438Z,101640.06
2022-11-10T18:12:59.873Z,101639.47
2022-11-10T18:14:20.288Z,101642.22
2022-11-10T18:15:47.269Z,101649.47
2022-11-10T18:17:07.745Z,101646.06
2022-11-10T18:18:30.998Z,101650.53
2022-11-10T18:19:55.723Z,101649.81
2022-11-10T18:21:18.523Z,101654.28
2022-11-10T18:22:41.311Z,101650.34
2022-11-10T18:24:04.903Z,101655.88
2022-11-10T18:25:25.306Z,101665.16
2022-11-10T18:26:47.848Z,101659.81
2022-11-10T18:28:08.989Z,101647.47
2022-11-10T18:29:31.779Z,101655.31
2022-11-10T18:30:52.471Z,101646.03
2022-11-10T18:32:15.890Z,101646.88
2022-11-10T18:33:37.286Z,101648.00
2022-11-10T18:35:00.309Z,101646.03
2022-11-10T18:36:22.834Z,101642.38
2022-11-10T18:37:43.723Z,101644.28
2022-11-10T18:39:04.539Z,101645.63
2022-11-10T18:40:25.217Z,101640.53
2022-11-10T18:41:56.259Z,101647.53
2022-11-10T18:43:19.979Z,101641.50
2022-11-10T18:44:41.532Z,101638.44
2022-11-10T18:46:04.025Z,101642.59
2022-11-10T18:47:24.443Z,101645.34
2022-11-10T18:48:51.103Z,101641.38
2022-11-10T18:50:11.486Z,101646.47
2022-11-10T18:51:32.455Z,101661.34
2022-11-10T18:52:54.998Z,101659.28
2022-11-10T18:54:16.713Z,101658.97
2022-11-10T18:55:41.743Z,101653.03
2022-11-10T18:57:07.380Z,101655.75
2022-11-10T18:58:28.154Z,101659.66
2022-11-10T18:59:49.642Z,101643.34
2022-11-10T19:01:11.044Z,101652.34
2022-11-10T19:02:31.506Z,101657.94
2022-11-10T19:03:51.745Z,101657.47
2022-11-10T19:05:13.821Z,101661.38
2022-11-10T19:06:39.756Z,101663.56
2022-11-10T19:08:00.112Z,101667.41
2022-11-10T19:09:20.333Z,101668.53
2022-11-10T19:10:43.682Z,101667.06
2022-11-10T19:12:04.516Z,101676.75
2022-11-10T19:13:26.651Z,101676.50
2022-11-10T19:14:47.613Z,101677.34
2022-11-10T19:16:12.150Z,101679.03
2022-11-10T19:17:34.165Z,101671.47
2022-11-10T19:18:55.008Z,101678.78
2022-11-10T19:20:20.424Z,101678.78
2022-11-10T19:21:40.946Z,101685.88
2022-11-10T19:23:01.062Z,101689.75
2022-11-10T19:24:27.724Z,101694.28
2022-11-10T19:25:48.599Z,101695.38
2022-11-10T19:27:09.923Z,101685.50
2022-11-10T19:28:30.579Z,101680.94
2022-11-10T19:29:53.438Z,101677.16
2022-11-10T19:31:15.749Z,101679.38
2022-11-10T19:32:35.984Z,101675.47
2022-11-10T19:33:56.590Z,101677.16
2022-11-10T19:35:23.298Z,101687.28
2022-11-10T19:36:43.929Z,101691.19
2022-11-10T19:38:05.209Z,101698.50
2022-11-10T19:39:27.072Z,101698.50
2022-11-10T19:40:47.922Z,101703.25
2022-11-10T19:42:08.747Z,101712.53
2022-11-10T19:43:33.379Z,101714.25
2022-11-10T19:44:55.118Z,101713.38
2022-11-10T19:46:20.407Z,101712.53
2022-11-10T19:47:41.827Z,101719.50
2022-11-10T19:49:03.585Z,101724.53
2022-11-10T19:50:25.910Z,101737.94
2022-11-10T19:53:20.438Z,101738.22
2022-11-10T19:54:41.150Z,101740.16
2022-11-10T19:57:41.133Z,101756.63
2022-11-10T19:59:01.885Z,101760.53
2022-11-10T20:00:27.079Z,101766.66
2022-11-10T20:01:52.005Z,101762.16
2022-11-10T20:03:16.220Z,101755.34
2022-11-10T20:06:34.621Z,101746.34
2022-11-10T20:08:16.256Z,101745.50
2022-11-10T20:09:40.213Z,101721.59
2022-11-10T20:11:03.021Z,101751.84
2022-11-10T20:12:24.058Z,101759.88
2022-11-10T20:13:53.302Z,101764.03
2022-11-10T20:15:17.106Z,101762.59
2022-11-10T20:16:41.024Z,101763.91
2022-11-10T20:18:01.911Z,101772.56
2022-11-10T20:19:22.728Z,101768.91
2022-11-10T20:20:43.076Z,101767.47
2022-11-10T20:22:03.379Z,101754.81
2022-11-10T20:23:24.348Z,101755.06
2022-11-10T20:24:50.831Z,101755.31
2022-11-10T20:26:13.141Z,101756.22
2022-11-10T20:29:13.079Z,101761.59
2022-11-10T20:30:35.001Z,101750.88
2022-11-10T20:31:56.311Z,101755.38
2022-11-10T20:33:18.182Z,101757.59
2022-11-10T20:34:42.817Z,101757.81
2022-11-10T20:36:09.067Z,101771.81
2022-11-10T20:37:32.210Z,101755.88
2022-11-10T20:38:55.834Z,101767.31
2022-11-10T20:40:42.906Z,101767.31
2022-11-10T20:42:00.828Z,101768.66
2022-11-10T20:43:24.488Z,101755.50
2022-11-10T20:44:45.882Z,101756.63
2022-11-10T20:46:07.738Z,101750.16
2022-11-10T20:47:31.615Z,101751.25
2022-11-10T20:48:58.011Z,101746.75
2022-11-10T20:50:24.146Z,101763.56
2022-11-10T20:51:44.787Z,101747.00
2022-11-10T20:53:06.468Z,101747.25
2022-11-10T20:54:27.459Z,101756.78
2022-11-10T20:55:53.979Z,101748.38
2022-11-10T20:57:18.387Z,101749.69
2022-11-10T20:58:39.406Z,101764.53
2022-11-10T21:00:04.401Z,101762.00
2022-11-10T21:01:25.966Z,101765.88
2022-11-10T21:02:47.663Z,101770.63
2022-11-10T21:04:17.354Z,101754.94
2022-11-10T21:05:39.722Z,101758.84
2022-11-10T21:07:00.297Z,101761.03
2022-11-10T21:08:23.283Z,101762.13
2022-11-10T21:09:43.725Z,101759.84
2022-11-10T21:11:08.304Z,101763.09
2022-11-10T21:12:47.410Z,101774.31
2022-11-10T21:14:09.318Z,101786.59
2022-11-10T21:15:29.313Z,101780.16
2022-11-10T21:16:57.783Z,101784.06
2022-11-10T21:18:19.194Z,101783.19
2022-11-10T21:19:40.123Z,101762.16
2022-11-10T21:21:04.324Z,101759.59
2022-11-10T21:22:24.375Z,101764.81
2022-11-10T21:23:47.117Z,101770.66
2022-11-10T21:25:09.107Z,101763.00
2022-11-10T21:26:39.041Z,101765.19
2022-11-10T21:28:00.301Z,101763.50
2022-11-10T21:29:24.108Z,101761.41
2022-11-10T21:30:47.586Z,101759.97
2022-11-10T21:32:10.613Z,101760.22
2022-11-10T21:33:34.503Z,101759.00
2022-11-10T21:35:03.252Z,101750.00
2022-11-10T21:36:29.385Z,101748.28
2022-11-10T21:37:50.798Z,101751.31
2022-11-10T21:39:11.126Z,101751.31
2022-11-10T21:40:34.941Z,101748.75
2022-11-10T21:41:55.605Z,101747.91
2022-11-10T21:43:19.875Z,101747.06
2022-11-10T21:44:46.228Z,101760.22
2022-11-10T21:46:07.223Z,101748.41
2022-11-10T21:47:27.882Z,101757.06
2022-11-10T21:48:48.883Z,101756.44
2022-11-10T21:50:10.821Z,101766.16
2022-11-10T21:51:31.315Z,101757.16
2022-11-10T21:52:51.788Z,101753.50
2022-11-10T21:54:12.593Z,101748.97
2022-11-10T21:55:33.388Z,101746.41
2022-11-10T21:58:35.283Z,101751.16
2022-11-10T21:59:57.687Z,101747.75
2022-11-10T22:01:24.968Z,101745.22
2022-11-10T22:02:49.373Z,101745.47
2022-11-10T22:04:15.615Z,101748.50
2022-11-10T22:05:37.212Z,101743.97
2022-11-10T22:07:23.984Z,101747.00
2022-11-10T22:08:44.787Z,101753.09
2022-11-10T22:10:23.310Z,101759.78
2022-11-10T22:12:01.727Z,101749.94
2022-11-10T22:13:40.494Z,101754.06
2022-11-10T22:15:19.063Z,101752.59
2022-11-10T22:17:00.596Z,101752.84
2022-11-10T22:18:39.697Z,101759.75
2022-11-10T22:19:59.751Z,101762.19
2022-11-10T22:21:19.765Z,101771.06
2022-11-10T22:22:39.551Z,101772.13
2022-11-10T22:24:18.051Z,101776.03
2022-11-10T22:25:37.995Z,101770.69
2022-11-10T22:27:01.367Z,101775.66
2022-11-10T22:28:21.063Z,101769.22
2022-11-10T22:29:41.017Z,101775.06
2022-11-10T22:31:06.690Z,101778.09
2022-11-10T22:32:26.538Z,101781.97
2022-11-10T22:33:46.414Z,101775.53
2022-11-10T22:35:06.589Z,101780.28
2022-11-10T22:36:26.702Z,101784.16
2022-11-10T22:37:46.886Z,101786.31
2022-11-10T22:39:07.339Z,101776.25
2022-11-10T22:41:05.562Z,101781.22
2022-11-10T22:42:43.945Z,101782.56
2022-11-10T22:44:04.180Z,101784.97
2022-11-10T22:45:24.323Z,101786.53
2022-11-10T22:46:48.101Z,101777.53
2022-11-10T22:48:26.378Z,101775.69
2022-11-10T22:49:46.156Z,101766.06
2022-11-10T22:51:06.369Z,101769.94
2022-11-10T22:52:26.520Z,101764.00
2022-11-10T22:53:46.731Z,101762.78
2022-11-10T22:55:07.046Z,101765.16
2022-11-10T22:56:27.179Z,101761.50
2022-11-10T22:57:46.896Z,101762.84
2022-11-10T22:59:06.979Z,101770.63
2022-11-10T23:00:27.095Z,101758.22
2022-11-10T23:01:47.371Z,101763.81
2022-11-10T23:03:07.607Z,101762.09
2022-11-10T23:04:27.712Z,101763.81
2022-11-10T23:05:56.268Z,101762.09
2022-11-10T23:07:16.743Z,101757.38
2022-11-10T23:08:37.352Z,101759.31
2022-11-10T23:09:57.599Z,101768.53
2022-11-10T23:11:19.497Z,101763.19
2022-11-10T23:12:39.508Z,101765.34
2022-11-10T23:13:59.744Z,101760.84
2022-11-10T23:15:20.207Z,101772.00
2022-11-10T23:16:40.415Z,101770.31
2022-11-10T23:18:06.305Z,101768.63
2022-11-10T23:19:26.804Z,101772.50
2022-11-10T23:20:46.914Z,101769.09
2022-11-10T23:22:06.795Z,101767.38
2022-11-10T23:23:27.037Z,101771.28
2022-11-10T23:24:46.875Z,101774.06
2022-11-10T23:26:08.113Z,101767.88
2022-11-10T23:27:28.225Z,101769.16
2022-11-10T23:28:48.253Z,101770.91
2022-11-10T23:30:08.307Z,101758.00
2022-11-10T23:31:28.658Z,101762.72
2022-11-10T23:32:48.717Z,101762.72
2022-11-10T23:34:08.867Z,101763.81
2022-11-10T23:35:28.814Z,101767.69
2022-11-10T23:36:48.981Z,101775.22
2022-11-10T23:38:09.153Z,101768.16
2022-11-10T23:39:29.024Z,101778.72
2022-11-10T23:40:49.153Z,101778.13
2022-11-10T23:42:09.432Z,101769.13
2022-11-10T23:43:29.305Z,101775.75
2022-11-10T23:44:49.385Z,101776.25
2022-11-10T23:46:09.913Z,101780.13
2022-11-10T23:47:29.902Z,101776.72
2022-11-10T23:48:49.927Z,101777.81
2022-11-10T23:50:10.180Z,101778.88
2022-11-10T23:51:30.282Z,101780.81
2022-11-10T23:52:50.511Z,101788.59
2022-11-10T23:54:10.715Z,101785.16
2022-11-10T23:55:30.921Z,101779.81
2022-11-10T23:56:51.139Z,101789.22
2022-11-10T23:58:10.998Z,101777.44
2022-11-10T23:59:30.834Z,101777.69
